Time;durP1;ratioP1;P1;durP2;ratioP2;P2;SDS_P1;SDS_P2;PMS_P1;PMS_P2;Temp;Humidity;BMP_temperature;BMP_pressure;BME280_temperature;BME280_humidity;BME280_pressure;Samples;Min_cycle;Max_cycle;Signal;HPM_P1;HPM_P2
2022/09/27 00:02:15;;;;;;;2.42;1.08;;;22.00;62.90;;;;;;5048943;28;20513;-57
2022/09/27 00:04:41;;;;;;;1.83;0.70;;;22.00;62.90;;;;;;5049732;28;20032;-58
2022/09/27 00:07:06;;;;;;;1.08;0.50;;;22.00;62.80;;;;;;5049779;28;20517;-47
2022/09/27 00:09:32;;;;;;;0.88;0.73;;;22.00;62.70;;;;;;5049547;28;20037;-57
2022/09/27 00:11:58;;;;;;;0.98;0.63;;;22.00;62.60;;;;;;5051564;28;20466;-59
2022/09/27 00:14:24;;;;;;;1.17;0.43;;;22.00;62.60;;;;;;5052059;28;20653;-59
2022/09/27 00:16:49;;;;;;;1.08;0.65;;;22.00;62.60;;;;;;5053782;28;20029;-59
2022/09/27 00:19:21;;;;;;;0.50;0.40;;;22.00;62.50;;;;;;5052156;28;20032;-54
2022/09/27 00:21:47;;;;;;;;;;;22.00;62.50;;;;;;5049420;28;20025;-59
2022/09/27 00:24:15;;;;;;;0.43;0.43;;;22.00;62.30;;;;;;5052249;28;19912;-59
2022/09/27 00:26:41;;;;;;;1.92;0.80;;;22.00;62.40;;;;;;5053214;28;20029;-59
2022/09/27 00:29:08;;;;;;;0.50;0.45;;;22.00;62.30;;;;;;5052781;28;20426;-47
2022/09/27 00:31:34;;;;;;;0.70;0.70;;;22.00;62.30;;;;;;5053131;28;20108;-58
2022/09/27 00:34:01;;;;;;;1.20;0.60;;;22.00;62.30;;;;;;5052856;28;20116;-59
2022/09/27 00:36:28;;;;;;;0.75;0.52;;;22.00;62.20;;;;;;5050235;28;20572;-59
2022/09/27 00:38:55;;;;;;;0.90;0.50;;;22.00;62.10;;;;;;5050709;28;20029;-59
2022/09/27 00:41:31;;;;;;;0.30;0.30;;;22.00;62.20;;;;;;5051993;28;20072;-59
2022/09/27 00:44:03;;;;;;;0.50;0.50;;;22.00;62.10;;;;;;5052832;28;20059;-59
2022/09/27 00:46:48;;;;;;;1.30;0.60;;;22.00;62.00;;;;;;5051337;28;20128;-59
2022/09/27 00:49:33;;;;;;;0.88;0.47;;;21.90;62.00;;;;;;5051887;28;20062;-58
2022/09/27 00:52:02;;;;;;;0.65;0.65;;;22.00;61.90;;;;;;5053115;28;20036;-59
2022/09/27 00:54:29;;;;;;;2.53;0.50;;;21.90;61.90;;;;;;5051038;28;20025;-60
2022/09/27 00:56:56;;;;;;;0.80;0.50;;;22.00;61.80;;;;;;5053352;28;20035;-56
2022/09/27 00:59:27;;;;;;;1.38;0.40;;;21.90;61.60;;;;;;5051407;28;20021;-59
2022/09/27 01:01:53;;;;;;;0.43;0.35;;;21.90;61.60;;;;;;5052303;28;20037;-59
2022/09/27 01:04:22;;;;;;;0.43;0.43;;;22.00;61.60;;;;;;5051901;28;20454;-59
2022/09/27 01:06:49;;;;;;;0.98;0.75;;;21.90;61.50;;;;;;5050982;28;20111;-59
2022/09/27 01:09:15;;;;;;;0.47;0.47;;;21.90;61.50;;;;;;5045920;28;20032;-59
2022/09/27 01:12:03;;;;;;;0.77;0.35;;;21.90;61.40;;;;;;5052220;28;20021;-59
2022/09/27 01:14:51;;;;;;;1.05;0.50;;;21.90;61.40;;;;;;5051196;28;20460;-59
2022/09/27 01:17:33;;;;;;;0.50;0.40;;;21.90;61.30;;;;;;5051863;28;20526;-58
2022/09/27 01:20:16;;;;;;;1.50;0.30;;;21.90;61.30;;;;;;5051686;28;20033;-60
2022/09/27 01:23:13;;;;;;;0.68;0.40;;;21.90;61.30;;;;;;5050955;28;20082;-58
2022/09/27 01:26:13;;;;;;;0.98;0.50;;;21.90;61.20;;;;;;5048809;28;20033;-59
2022/09/27 01:28:50;;;;;;;0.22;0.22;;;21.90;61.10;;;;;;5045550;28;20041;-58
2022/09/27 01:31:37;;;;;;;0.75;0.40;;;21.90;61.10;;;;;;5045508;28;20029;-59
2022/09/27 01:34:02;;;;;;;0.43;0.43;;;21.90;61.00;;;;;;5051219;28;20057;-57
2022/09/27 01:36:55;;;;;;;0.35;0.30;;;21.90;61.10;;;;;;5051683;28;20055;-59
2022/09/27 01:39:43;;;;;;;0.82;0.35;;;21.90;61.00;;;;;;5050265;28;20025;-59
2022/09/27 01:42:18;;;;;;;0.35;0.30;;;21.90;60.90;;;;;;5048546;28;20171;-48
2022/09/27 01:44:49;;;;;;;0.98;0.30;;;21.90;60.90;;;;;;5044655;28;20032;-59
2022/09/27 01:47:23;;;;;;;0.85;0.52;;;22.00;60.90;;;;;;5050840;28;20113;-52
2022/09/27 01:49:58;;;;;;;0.35;0.35;;;21.90;60.80;;;;;;5051333;28;20032;-59
2022/09/27 01:52:38;;;;;;;1.10;0.50;;;21.90;60.70;;;;;;5051075;28;20115;-59
2022/09/27 01:55:06;;;;;;;0.57;0.30;;;21.90;60.70;;;;;;5046614;28;20078;-59
2022/09/27 01:57:39;;;;;;;0.57;0.45;;;21.90;60.60;;;;;;5050799;28;20025;-59
2022/09/27 02:00:09;;;;;;;0.63;0.40;;;21.90;60.60;;;;;;5051157;28;20033;-47
2022/09/27 02:03:03;;;;;;;0.45;0.30;;;21.90;60.60;;;;;;5050915;28;20061;-59
2022/09/27 02:05:35;;;;;;;0.55;0.40;;;21.90;60.50;;;;;;5050267;28;20057;-52
2022/09/27 02:08:06;;;;;;;0.43;0.35;;;21.90;60.40;;;;;;5043592;28;20028;-59
2022/09/27 02:10:38;;;;;;;0.40;0.30;;;21.90;60.40;;;;;;5041990;28;20037;-59
2022/09/27 02:13:14;;;;;;;1.10;0.60;;;21.90;60.40;;;;;;5047576;28;20398;-59
2022/09/27 02:15:51;;;;;;;0.30;0.30;;;21.90;60.40;;;;;;5049802;28;20041;-59
2022/09/27 02:18:22;;;;;;;0.50;0.28;;;21.90;60.40;;;;;;5050447;28;20102;-58
2022/09/27 02:20:56;;;;;;;1.05;0.60;;;21.90;60.40;;;;;;5051096;28;20079;-59
2022/09/27 02:23:46;;;;;;;0.85;0.60;;;21.90;60.50;;;;;;5049787;28;20036;-59
2022/09/27 02:26:23;;;;;;;0.20;0.20;;;21.90;60.20;;;;;;5050340;28;20099;-59
2022/09/27 02:29:10;;;;;;;0.30;0.25;;;21.90;60.20;;;;;;5048041;28;20600;-59
2022/09/27 02:31:36;;;;;;;0.40;0.35;;;21.90;60.20;;;;;;5046064;28;20478;-59
2022/09/27 02:34:23;;;;;;;0.43;0.40;;;21.90;60.10;;;;;;5050549;28;20028;-59
2022/09/27 02:36:52;;;;;;;0.25;0.20;;;21.90;60.10;;;;;;5050064;28;20025;-59
2022/09/27 02:39:18;;;;;;;0.73;0.50;;;21.90;60.10;;;;;;5049206;28;20032;-59
2022/09/27 02:41:44;;;;;;;1.88;0.40;;;21.90;60.00;;;;;;5050775;28;20063;-59
2022/09/27 02:44:13;;;;;;;0.35;0.32;;;21.90;60.00;;;;;;5049989;28;20517;-58
2022/09/27 02:46:42;;;;;;;0.75;0.50;;;21.90;59.90;;;;;;5048917;28;20434;-59
2022/09/27 02:49:25;;;;;;;0.60;0.40;;;21.90;59.90;;;;;;5049839;28;20067;-47
2022/09/27 02:52:09;;;;;;;0.30;0.30;;;21.90;59.90;;;;;;5046888;28;20108;-59
2022/09/27 02:54:43;;;;;;;0.28;0.28;;;21.90;59.90;;;;;;5049019;28;20033;-53
2022/09/27 02:57:36;;;;;;;0.35;0.35;;;21.90;59.70;;;;;;5049838;28;20373;-53
2022/09/27 03:00:16;;;;;;;0.50;0.30;;;21.90;59.70;;;;;;5048978;28;20028;-59
2022/09/27 03:02:52;;;;;;;0.25;0.25;;;21.90;59.60;;;;;;5049999;28;20485;-58
2022/09/27 03:05:25;;;;;;;0.20;0.20;;;21.90;59.60;;;;;;5046284;28;20044;-59
2022/09/27 03:07:51;;;;;;;0.20;0.20;;;21.90;59.40;;;;;;5047463;28;20062;-59
2022/09/27 03:10:19;;;;;;;0.43;0.30;;;21.90;59.40;;;;;;5048897;28;20037;-59
2022/09/27 03:12:45;;;;;;;0.75;0.40;;;21.90;59.40;;;;;;5049844;28;20025;-59
2022/09/27 03:15:11;;;;;;;0.77;0.40;;;21.90;59.30;;;;;;5049243;28;20028;-55
2022/09/27 03:17:36;;;;;;;0.40;0.30;;;21.90;59.30;;;;;;5049301;28;20029;-57
2022/09/27 03:20:02;;;;;;;1.25;0.30;;;21.90;59.20;;;;;;5050295;28;20029;-59
2022/09/27 03:22:28;;;;;;;0.52;0.30;;;21.90;59.20;;;;;;5049534;28;20036;-59
2022/09/27 03:24:53;;;;;;;0.40;0.40;;;21.90;59.20;;;;;;5048882;28;20029;-59
2022/09/27 03:27:19;;;;;;;0.82;0.40;;;21.90;59.20;;;;;;5049417;28;20029;-59
2022/09/27 03:29:45;;;;;;;1.13;0.40;;;21.90;59.20;;;;;;5050141;28;20087;-58
2022/09/27 03:32:11;;;;;;;1.38;0.45;;;21.90;59.10;;;;;;5049578;28;20826;-58
2022/09/27 03:34:37;;;;;;;0.60;0.45;;;21.90;59.10;;;;;;5049790;28;20063;-56
2022/09/27 03:37:02;;;;;;;0.20;0.20;;;21.90;59.00;;;;;;5046714;28;20173;-59
2022/09/27 03:39:28;;;;;;;0.20;0.20;;;21.90;59.00;;;;;;5049226;28;20037;-59
2022/09/27 03:41:54;;;;;;;1.85;0.30;;;21.90;58.90;;;;;;5044728;28;20452;-59
2022/09/27 03:44:19;;;;;;;0.45;0.30;;;21.90;58.90;;;;;;5049559;28;20032;-58
2022/09/27 03:46:45;;;;;;;0.80;0.40;;;21.90;58.90;;;;;;5050037;28;20056;-59
2022/09/27 03:49:10;;;;;;;0.40;0.30;;;21.90;58.80;;;;;;5049822;28;20025;-54
2022/09/27 03:51:36;;;;;;;1.23;0.30;;;21.90;58.70;;;;;;5053350;28;20036;-59
2022/09/27 03:54:02;;;;;;;0.30;0.30;;;21.90;58.70;;;;;;5053649;28;20021;-58
2022/09/27 03:56:27;;;;;;;0.47;0.47;;;21.90;58.70;;;;;;5052968;28;20033;-59
2022/09/27 03:58:53;;;;;;;0.20;0.20;;;21.90;58.70;;;;;;5053305;28;20055;-57
2022/09/27 04:01:19;;;;;;;1.75;0.40;;;21.90;58.60;;;;;;5052604;28;20055;-58
2022/09/27 04:03:45;;;;;;;0.28;0.28;;;21.90;58.60;;;;;;5053495;28;20427;-58
2022/09/27 04:06:10;;;;;;;0.82;0.40;;;21.90;58.60;;;;;;5052706;28;20036;-58
2022/09/27 04:08:36;;;;;;;0.30;0.20;;;21.90;58.50;;;;;;5053866;28;20128;-56
2022/09/27 04:11:02;;;;;;;0.65;0.30;;;21.90;58.40;;;;;;5053642;28;20163;-57
2022/09/27 04:13:28;;;;;;;0.50;0.40;;;21.90;58.40;;;;;;5052390;28;20037;-58
2022/09/27 04:15:53;;;;;;;0.40;0.30;;;21.90;58.30;;;;;;5053407;28;20036;-59
2022/09/27 04:18:19;;;;;;;0.70;0.30;;;21.90;58.30;;;;;;5052829;28;20400;-58
2022/09/27 04:20:45;;;;;;;0.50;0.30;;;21.90;58.20;;;;;;5052092;28;20083;-58
2022/09/27 04:23:10;;;;;;;0.30;0.30;;;21.90;58.30;;;;;;5052383;28;20108;-48
2022/09/27 04:25:38;;;;;;;0.30;0.30;;;21.90;58.10;;;;;;5052962;28;20458;-58
2022/09/27 04:28:05;;;;;;;1.02;0.30;;;21.90;58.10;;;;;;5053047;28;20100;-57
2022/09/27 04:30:30;;;;;;;1.00;0.50;;;21.90;58.10;;;;;;5052255;28;20033;-58
2022/09/27 04:32:56;;;;;;;0.85;0.52;;;21.90;58.10;;;;;;5053298;28;20462;-58
2022/09/27 04:38:06;;;;;;;0.68;0.40;;;21.90;58.00;;;;;;5052204;28;20385;-48
2022/09/27 04:40:35;;;;;;;1.20;0.30;;;21.80;58.00;;;;;;5044439;28;20033;-59
2022/09/27 04:43:03;;;;;;;0.73;0.47;;;21.90;58.00;;;;;;5053051;28;20041;-59
2022/09/27 04:45:29;;;;;;;0.55;0.52;;;21.90;58.00;;;;;;5051765;28;20025;-59
2022/09/27 04:47:54;;;;;;;0.55;0.40;;;21.90;58.00;;;;;;5052717;28;20029;-59
2022/09/27 04:50:20;;;;;;;0.20;0.20;;;21.90;57.90;;;;;;5052403;28;20036;-59
2022/09/27 04:52:50;;;;;;;0.98;0.30;;;21.80;57.80;;;;;;5053163;28;20424;-59
2022/09/27 04:55:17;;;;;;;0.22;0.22;;;21.90;57.80;;;;;;5050802;28;20422;-59
2022/09/27 04:57:43;;;;;;;0.47;0.32;;;21.90;57.80;;;;;;5052856;28;20116;-59
2022/09/27 05:00:09;;;;;;;2.10;0.60;;;21.90;57.90;;;;;;5051791;28;20104;-48
2022/09/27 05:02:34;;;;;;;0.93;0.20;;;21.90;57.80;;;;;;5052077;28;20041;-59
2022/09/27 05:05:00;;;;;;;0.45;0.30;;;21.70;57.60;;;;;;5052607;28;20091;-59
2022/09/27 05:07:27;;;;;;;0.30;0.30;;;21.90;57.70;;;;;;5052145;28;20021;-59
2022/09/27 05:09:53;;;;;;;0.70;0.43;;;21.80;57.60;;;;;;5052260;28;20370;-58
2022/09/27 05:12:19;;;;;;;0.35;0.35;;;21.90;57.70;;;;;;5051752;28;20037;-59
2022/09/27 05:14:45;;;;;;;0.40;0.30;;;21.90;57.70;;;;;;5052308;28;20030;-59
2022/09/27 05:17:11;;;;;;;0.70;0.30;;;21.90;57.70;;;;;;5051290;28;20024;-55
2022/09/27 05:19:40;;;;;;;0.38;0.30;;;21.90;57.60;;;;;;5048655;28;20033;-57
2022/09/27 05:22:06;;;;;;;0.55;0.30;;;21.80;57.60;;;;;;5049826;28;20020;-50
2022/09/27 05:24:32;;;;;;;0.70;0.30;;;21.80;57.50;;;;;;5051230;28;20025;-60
2022/09/27 05:26:59;;;;;;;1.48;0.50;;;21.80;57.50;;;;;;5052072;28;20071;-57
2022/09/27 05:29:25;;;;;;;0.43;0.30;;;21.90;57.70;;;;;;5051175;28;20037;-59
2022/09/27 05:31:50;;;;;;;0.65;0.50;;;21.90;57.50;;;;;;5052214;28;20032;-58
2022/09/27 05:34:18;;;;;;;1.08;0.38;;;21.90;57.50;;;;;;5050665;28;20029;-59
2022/09/27 05:36:46;;;;;;;1.90;0.40;;;21.90;57.70;;;;;;5052061;28;20036;-61
2022/09/27 05:39:12;;;;;;;3.03;0.85;;;21.90;57.70;;;;;;5042412;28;20076;-54
2022/09/27 05:41:39;;;;;;;7.18;0.80;;;21.90;57.80;;;;;;5046926;28;20441;-61
2022/09/27 05:44:05;;;;;;;6.22;0.85;;;22.00;58.00;;;;;;5051409;28;20025;-48
2022/09/27 05:46:31;;;;;;;11.07;1.50;;;22.00;57.90;;;;;;5051248;28;20514;-59
2022/09/27 05:48:56;;;;;;;7.95;1.50;;;22.00;57.30;;;;;;5030899;28;20037;-59
2022/09/27 05:51:22;;;;;;;6.80;0.90;;;22.00;56.50;;;;;;5047489;28;20029;-59
2022/09/27 05:53:48;;;;;;;7.13;1.48;;;22.00;56.40;;;;;;5052613;28;20060;-59
2022/09/27 05:56:13;;;;;;;4.13;0.90;;;22.00;54.30;;;;;;5052426;28;20079;-59
2022/09/27 05:58:39;;;;;;;1.20;0.60;;;22.00;52.70;;;;;;5041127;28;20037;-59
2022/09/27 06:01:08;;;;;;;3.42;0.80;;;22.00;52.00;;;;;;5044974;28;20090;-59
2022/09/27 06:03:34;;;;;;;5.90;0.98;;;22.00;51.70;;;;;;5042009;28;20029;-59
2022/09/27 06:06:05;;;;;;;0.75;0.45;;;21.90;51.50;;;;;;5042059;28;20029;-59
2022/09/27 06:08:35;;;;;;;3.10;0.70;;;21.90;51.10;;;;;;5029943;28;20485;-59
2022/09/27 06:11:06;;;;;;;2.28;0.70;;;22.00;50.80;;;;;;5031804;28;20037;-55
2022/09/27 06:13:32;;;;;;;1.00;0.40;;;22.00;50.80;;;;;;5025279;28;20031;-59
2022/09/27 06:15:58;;;;;;;2.17;0.82;;;21.90;50.70;;;;;;5038622;28;20037;-59
2022/09/27 06:18:24;;;;;;;2.38;0.70;;;21.90;50.50;;;;;;5050848;28;20036;-59
2022/09/27 06:20:51;;;;;;;1.50;0.55;;;21.90;50.70;;;;;;5051387;28;20390;-59
2022/09/27 06:23:22;;;;;;;2.65;1.25;;;21.90;50.60;;;;;;5034505;28;20038;-53
2022/09/27 06:25:50;;;;;;;4.28;0.47;;;21.90;50.50;;;;;;5044959;28;20056;-59
2022/09/27 06:28:16;;;;;;;1.40;0.40;;;21.90;50.50;;;;;;5047094;28;20040;-58
2022/09/27 06:30:47;;;;;;;4.32;1.00;;;21.90;50.40;;;;;;5044702;28;20040;-59
2022/09/27 06:33:15;;;;;;;1.02;0.40;;;21.90;50.20;;;;;;5051294;28;20362;-59
2022/09/27 06:35:44;;;;;;;2.75;0.63;;;21.90;50.00;;;;;;5050328;28;20535;-59
2022/09/27 06:38:12;;;;;;;2.55;0.63;;;21.80;50.50;;;;;;5046010;28;20032;-52
2022/09/27 06:40:38;;;;;;;2.22;0.50;;;21.80;49.80;;;;;;5050212;28;20043;-59
2022/09/27 06:43:09;;;;;;;0.50;0.38;;;21.90;49.70;;;;;;5047823;28;20420;-56
2022/09/27 06:45:36;;;;;;;1.05;0.50;;;21.80;50.10;;;;;;5050160;28;20113;-59
2022/09/27 06:48:03;;;;;;;1.20;0.50;;;21.90;49.90;;;;;;5046854;28;20082;-61
2022/09/27 06:50:33;;;;;;;1.33;0.40;;;21.90;49.80;;;;;;5048322;28;20505;-48
2022/09/27 06:52:59;;;;;;;2.08;0.57;;;21.90;49.80;;;;;;5042647;28;20021;-59
2022/09/27 06:55:25;;;;;;;1.10;0.40;;;21.90;49.60;;;;;;5040163;28;20037;-59
2022/09/27 07:00:41;;;;;;;1.63;0.40;;;21.90;49.50;;;;;;5050093;28;20039;-57
2022/09/27 07:03:12;;;;;;;1.55;0.50;;;21.90;50.00;;;;;;5048363;28;20112;-47
2022/09/27 07:05:38;;;;;;;1.85;0.50;;;21.90;49.80;;;;;;5047958;28;20037;-59
2022/09/27 07:08:04;;;;;;;1.27;0.40;;;21.90;49.30;;;;;;5049532;28;20040;-55
2022/09/27 07:10:33;;;;;;;0.82;0.47;;;21.90;49.20;;;;;;5039943;28;20033;-57
2022/09/27 07:13:09;;;;;;;1.65;0.70;;;21.90;49.10;;;;;;5043272;28;20045;-59
2022/09/27 07:15:39;;;;;;;1.05;0.70;;;21.80;49.30;;;;;;5050159;28;20149;-59
2022/09/27 07:18:06;;;;;;;2.13;0.50;;;21.80;49.00;;;;;;5051685;28;20385;-49
2022/09/27 07:20:36;;;;;;;3.33;0.45;;;21.80;49.10;;;;;;5052154;28;20103;-58
2022/09/27 07:23:02;;;;;;;2.17;0.40;;;21.90;49.70;;;;;;5052460;28;20027;-59
2022/09/27 07:25:27;;;;;;;2.35;0.60;;;21.90;50.90;;;;;;5052941;28;20029;-59
2022/09/27 07:27:53;;;;;;;1.00;0.50;;;21.90;51.90;;;;;;5054409;28;20112;-59
2022/09/27 07:30:20;;;;;;;1.00;0.52;;;21.90;52.20;;;;;;5051142;28;20028;-59
2022/09/27 07:32:46;;;;;;;2.20;1.10;;;21.90;52.50;;;;;;5054249;28;20025;-59
2022/09/27 07:35:15;;;;;;;2.45;0.50;;;21.90;52.50;;;;;;5051467;28;20029;-58
2022/09/27 07:37:41;;;;;;;2.72;0.70;;;21.90;52.80;;;;;;5038476;28;20083;-59
2022/09/27 07:40:08;;;;;;;2.08;0.60;;;21.90;52.90;;;;;;5053770;28;20045;-58
2022/09/27 07:42:37;;;;;;;1.02;0.60;;;21.90;53.10;;;;;;5051454;28;20025;-58
2022/09/27 07:45:05;;;;;;;1.75;0.43;;;21.90;53.20;;;;;;5052011;28;20437;-59
2022/09/27 07:47:31;;;;;;;3.50;0.70;;;21.90;53.20;;;;;;5052735;28;20037;-59
2022/09/27 07:49:57;;;;;;;1.38;0.60;;;21.90;53.30;;;;;;5053202;28;20056;-57
2022/09/27 07:52:23;;;;;;;1.10;0.60;;;21.90;53.30;;;;;;5051590;28;20029;-58
2022/09/27 07:54:49;;;;;;;2.15;0.52;;;21.90;53.40;;;;;;5053321;28;20036;-59
2022/09/27 07:57:15;;;;;;;1.65;0.50;;;21.90;53.50;;;;;;5049432;28;20047;-58
2022/09/27 07:59:41;;;;;;;1.10;0.63;;;21.90;53.50;;;;;;5053073;28;20106;-59
2022/09/27 08:02:15;;;;;;;0.93;0.60;;;21.90;53.60;;;;;;5047308;28;20552;-48
2022/09/27 08:04:46;;;;;;;1.20;0.60;;;21.90;53.60;;;;;;5043092;28;20440;-58
2022/09/27 08:07:12;;;;;;;2.10;0.47;;;21.90;53.70;;;;;;5054493;28;20381;-57
2022/09/27 08:09:37;;;;;;;1.48;0.70;;;21.90;53.90;;;;;;5049410;28;20473;-59
2022/09/27 08:12:03;;;;;;;1.30;0.52;;;21.90;53.80;;;;;;5053101;28;20025;-59
2022/09/27 08:14:30;;;;;;;1.85;0.77;;;22.00;54.00;;;;;;5050565;28;20040;-59
2022/09/27 08:16:55;;;;;;;1.27;0.70;;;22.00;54.00;;;;;;5052808;28;20029;-61
2022/09/27 08:19:21;;;;;;;1.25;0.77;;;21.90;53.90;;;;;;5046813;28;20029;-59
2022/09/27 08:21:47;;;;;;;1.17;0.50;;;22.00;54.10;;;;;;5047793;28;20041;-59
2022/09/27 08:24:13;;;;;;;2.50;0.60;;;21.90;54.00;;;;;;5051904;28;20056;-58
2022/09/27 08:26:39;;;;;;;3.42;0.90;;;21.90;54.00;;;;;;5052863;28;20110;-59
2022/09/27 08:29:05;;;;;;;1.35;0.63;;;21.90;54.00;;;;;;5047688;28;20036;-48
2022/09/27 08:31:31;;;;;;;2.25;0.70;;;21.90;54.10;;;;;;5051707;28;20033;-59
2022/09/27 08:33:56;;;;;;;1.42;0.82;;;21.90;54.20;;;;;;5051282;28;20021;-58
2022/09/27 08:36:23;;;;;;;1.45;0.60;;;21.90;54.20;;;;;;5051684;28;20027;-58
2022/09/27 08:38:53;;;;;;;1.20;0.60;;;22.00;54.20;;;;;;5048503;28;20037;-59
2022/09/27 08:41:37;;;;;;;1.05;0.73;;;21.90;54.20;;;;;;5050340;28;20041;-59
2022/09/27 08:44:27;;;;;;;1.83;0.77;;;21.90;54.20;;;;;;5051441;28;20390;-59
2022/09/27 08:46:59;;;;;;;0.73;0.52;;;22.00;54.30;;;;;;5051305;28;20524;-59
2022/09/27 08:49:35;;;;;;;3.75;0.47;;;22.00;54.30;;;;;;5050237;28;20029;-59
2022/09/27 08:52:05;;;;;;;1.13;0.50;;;22.00;54.30;;;;;;5046974;28;20500;-48
2022/09/27 08:54:32;;;;;;;1.73;0.50;;;22.00;55.00;;;;;;5053470;28;20025;-59
2022/09/27 08:57:06;;;;;;;0.50;0.40;;;22.00;54.30;;;;;;5053647;28;20104;-58
2022/09/27 08:59:38;;;;;;;1.10;0.45;;;22.00;54.20;;;;;;5051012;28;20080;-59
2022/09/27 09:02:12;;;;;;;0.75;0.50;;;22.00;54.20;;;;;;5051975;28;20102;-59
2022/09/27 09:04:40;;;;;;;0.93;0.52;;;22.00;54.30;;;;;;5051290;28;20445;-54
2022/09/27 09:07:25;;;;;;;0.70;0.50;;;22.00;54.90;;;;;;5050252;28;20017;-53
2022/09/27 09:12:45;;;;;;;0.93;0.40;;;22.00;54.30;;;;;;5045527;28;20155;-59
2022/09/27 09:13:16;;;;;;;1.00;0.32;;;21.90;54.20;;;;;;5049697;28;20040;-59
2022/09/27 09:15:58;;;;;;;0.90;0.50;;;22.00;54.20;;;;;;5047652;28;20032;-59
2022/09/27 09:18:50;;;;;;;0.70;0.65;;;22.00;54.20;;;;;;5050830;28;20025;-59
2022/09/27 09:21:35;;;;;;;0.65;0.32;;;22.00;54.30;;;;;;5040873;28;20470;-59
2022/09/27 09:24:09;;;;;;;1.35;0.30;;;22.00;54.20;;;;;;5051066;28;20025;-50
2022/09/27 09:26:41;;;;;;;0.82;0.40;;;22.00;54.30;;;;;;5051426;28;20063;-53
2022/09/27 09:29:30;;;;;;;0.70;0.40;;;22.00;54.20;;;;;;5050655;28;20025;-48
2022/09/27 09:32:13;;;;;;;1.10;0.47;;;22.00;54.30;;;;;;5049910;28;20053;-59
2022/09/27 09:34:44;;;;;;;2.83;0.50;;;22.00;54.30;;;;;;5051139;28;20112;-59
2022/09/27 09:37:30;;;;;;;2.70;0.50;;;22.00;54.40;;;;;;5051091;28;20033;-47
2022/09/27 09:39:58;;;;;;;1.55;0.50;;;22.00;54.40;;;;;;5048433;28;20527;-59
2022/09/27 09:42:51;;;;;;;0.50;0.30;;;22.00;54.30;;;;;;5048780;28;20036;-59
2022/09/27 09:45:23;;;;;;;2.33;0.50;;;22.00;54.30;;;;;;5048251;28;20029;-56
2022/09/27 09:48:14;;;;;;;1.40;0.43;;;22.00;54.30;;;;;;5048013;28;20032;-59
2022/09/27 09:50:47;;;;;;;1.15;0.30;;;22.00;54.40;;;;;;5051739;28;20056;-56
2022/09/27 09:53:21;;;;;;;1.10;0.40;;;22.00;54.30;;;;;;5050553;28;20143;-59
2022/09/27 09:56:07;;;;;;;0.50;0.40;;;22.00;54.30;;;;;;5052570;28;20388;-59
2022/09/27 09:59:14;;;;;;;0.77;0.45;;;22.00;54.30;;;;;;5050550;28;20025;-59
2022/09/27 10:01:45;;;;;;;0.60;0.30;;;22.00;54.20;;;;;;4966616;28;20074;-58
2022/09/27 10:04:26;;;;;;;0.63;0.30;;;22.00;54.20;;;;;;4969280;28;20059;-56
2022/09/27 10:06:53;;;;;;;0.93;0.43;;;22.00;54.10;;;;;;5022189;28;20051;-59
2022/09/27 10:09:27;;;;;;;0.52;0.45;;;22.00;54.20;;;;;;5044337;28;20163;-59
2022/09/27 10:11:53;;;;;;;0.73;0.35;;;22.00;54.10;;;;;;5050898;28;20036;-60
2022/09/27 10:14:21;;;;;;;1.10;0.85;;;22.00;54.20;;;;;;5049591;28;20385;-58
2022/09/27 10:16:57;;;;;;;1.13;0.47;;;22.00;54.10;;;;;;5050832;28;20029;-59
2022/09/27 10:19:31;;;;;;;1.65;0.45;;;22.00;54.10;;;;;;5049583;28;20390;-58
2022/09/27 10:22:22;;;;;;;0.73;0.43;;;22.00;54.30;;;;;;5049843;28;20123;-59
2022/09/27 10:24:55;;;;;;;0.88;0.30;;;22.00;54.10;;;;;;5050487;28;20033;-59
2022/09/27 10:27:22;;;;;;;1.60;0.40;;;22.00;54.30;;;;;;5050267;28;20025;-59
2022/09/27 10:29:56;;;;;;;0.55;0.43;;;22.00;54.30;;;;;;5032447;28;20437;-59
2022/09/27 10:32:34;;;;;;;0.90;0.45;;;22.00;54.20;;;;;;5049917;28;20017;-58
2022/09/27 10:35:35;;;;;;;1.95;0.43;;;22.00;54.10;;;;;;5045320;28;20032;-59
2022/09/27 10:38:23;;;;;;;1.60;0.50;;;22.00;54.30;;;;;;5050257;28;20035;-50
2022/09/27 10:40:51;;;;;;;3.60;0.70;;;22.10;55.00;;;;;;5045876;28;20033;-59
2022/09/27 10:43:34;;;;;;;0.93;0.60;;;22.10;56.30;;;;;;5047731;28;20111;-59
2022/09/27 10:46:09;;;;;;;1.08;0.80;;;22.10;55.20;;;;;;5034393;28;20033;-58
2022/09/27 10:48:36;;;;;;;1.10;0.55;;;22.10;55.10;;;;;;5049403;28;20133;-59
2022/09/27 10:51:05;;;;;;;0.68;0.40;;;22.10;55.20;;;;;;5051436;28;20032;-59
2022/09/27 10:53:33;;;;;;;1.40;0.93;;;22.10;57.20;;;;;;5029573;28;20171;-59
2022/09/27 10:55:59;;;;;;;4.95;0.63;;;22.10;56.30;;;;;;5050213;28;20021;-59
2022/09/27 10:58:35;;;;;;;2.08;1.15;;;22.10;56.90;;;;;;5049109;28;20132;-59
2022/09/27 11:01:07;;;;;;;1.92;0.50;;;22.10;57.00;;;;;;5049511;28;20025;-59
2022/09/27 11:03:35;;;;;;;;;;;22.10;56.80;;;;;;5049814;28;20039;-59
2022/09/27 11:06:23;;;;;;;2.15;0.50;;;22.10;56.10;;;;;;5046955;28;20262;-57
2022/09/27 11:08:53;;;;;;;0.82;0.30;;;22.10;56.00;;;;;;5049243;28;20108;-59
2022/09/27 11:11:24;;;;;;;0.52;0.30;;;22.10;56.00;;;;;;5049394;28;20481;-60
2022/09/27 11:14:31;;;;;;;0.80;0.40;;;22.10;56.10;;;;;;5049482;28;20021;-60
2022/09/27 11:17:00;;;;;;;0.68;0.40;;;22.10;56.10;;;;;;5044587;28;20128;-59
2022/09/27 11:19:48;;;;;;;1.17;0.60;;;22.10;56.10;;;;;;5045997;28;20021;-50
2022/09/27 11:22:52;;;;;;;1.65;0.45;;;22.10;55.80;;;;;;5049619;28;20040;-59
2022/09/27 11:25:17;;;;;;;0.40;0.30;;;22.10;55.80;;;;;;5036571;28;20044;-59
2022/09/27 11:27:46;;;;;;;0.90;0.60;;;22.10;55.70;;;;;;5047036;28;20037;-59
2022/09/27 11:30:22;;;;;;;0.50;0.20;;;22.10;55.80;;;;;;5047830;28;20100;-58
2022/09/27 11:33:06;;;;;;;0.80;0.35;;;22.10;55.60;;;;;;5049041;28;20033;-58
2022/09/27 11:35:50;;;;;;;0.63;0.30;;;22.10;55.70;;;;;;5048247;28;20095;-58
2022/09/27 11:38:23;;;;;;;1.15;0.40;;;22.10;55.80;;;;;;5045413;28;20056;-57
2022/09/27 11:41:07;;;;;;;2.30;0.70;;;22.10;55.50;;;;;;5050156;28;20037;-58
2022/09/27 11:44:01;;;;;;;0.98;0.32;;;22.10;55.30;;;;;;5049056;28;20033;-58
2022/09/27 11:46:29;;;;;;;0.50;0.40;;;22.10;55.20;;;;;;5048893;28;20626;-56
2022/09/27 11:49:35;;;;;;;1.05;0.38;;;22.10;55.10;;;;;;5049060;28;20033;-54
2022/09/27 11:52:43;;;;;;;1.35;0.50;;;22.10;55.00;;;;;;4969892;28;20039;-57
2022/09/27 11:55:17;;;;;;;1.52;0.40;;;22.10;54.90;;;;;;4958520;28;20158;-47
2022/09/27 11:57:55;;;;;;;2.22;0.50;;;22.10;54.80;;;;;;5034109;28;20481;-58
2022/09/27 12:00:23;;;;;;;1.77;0.50;;;22.10;54.90;;;;;;5048544;28;20090;-59
2022/09/27 12:02:57;;;;;;;0.82;0.50;;;22.10;54.80;;;;;;5048815;28;20060;-58
2022/09/27 12:06:17;;;;;;;0.88;0.30;;;22.10;54.80;;;;;;5048896;28;20025;-57
2022/09/27 12:09:01;;;;;;;0.47;0.25;;;22.10;54.70;;;;;;4929662;29;20032;-58
2022/09/27 12:11:36;;;;;;;1.42;0.40;;;22.10;54.60;;;;;;5039027;28;20120;-57
2022/09/27 12:14:12;;;;;;;1.10;0.40;;;22.10;55.00;;;;;;5051217;28;20035;-57
2022/09/27 12:16:40;;;;;;;1.52;0.32;;;22.10;55.10;;;;;;5053329;28;20042;-58
2022/09/27 12:19:17;;;;;;;0.60;0.32;;;22.10;55.10;;;;;;5052618;28;20040;-47
2022/09/27 12:21:44;;;;;;;0.30;0.30;;;22.00;54.70;;;;;;5049959;28;20040;-54
2022/09/27 12:24:19;;;;;;;0.93;0.43;;;22.10;54.70;;;;;;5051636;28;20025;-47
2022/09/27 12:26:48;;;;;;;0.73;0.40;;;22.10;54.60;;;;;;5053423;28;20112;-58
2022/09/27 12:29:33;;;;;;;2.50;0.50;;;22.00;54.50;;;;;;5051482;28;20029;-57
2022/09/27 12:32:13;;;;;;;2.45;0.85;;;22.00;54.50;;;;;;5052413;28;20044;-57
2022/09/27 12:34:50;;;;;;;1.23;0.40;;;22.10;54.60;;;;;;5045850;28;20079;-58
2022/09/27 12:37:18;;;;;;;0.45;0.20;;;22.00;54.60;;;;;;5050682;28;20108;-58
2022/09/27 12:39:54;;;;;;;0.60;0.40;;;22.00;54.70;;;;;;5051846;28;20120;-58
2022/09/27 12:42:37;;;;;;;1.20;0.30;;;22.10;54.80;;;;;;5052263;28;20078;-58
2022/09/27 12:45:04;;;;;;;0.68;0.30;;;22.00;54.70;;;;;;5048272;28;20544;-58
2022/09/27 12:47:41;;;;;;;2.90;0.82;;;22.00;54.90;;;;;;5049378;28;20029;-57
2022/09/27 12:50:29;;;;;;;0.45;0.40;;;22.10;54.90;;;;;;5044961;28;20059;-47
2022/09/27 12:53:03;;;;;;;0.70;0.30;;;22.10;54.80;;;;;;5052673;28;20366;-58
2022/09/27 12:55:56;;;;;;;2.28;0.63;;;22.00;55.00;;;;;;5051244;28;20573;-58
2022/09/27 12:59:01;;;;;;;0.88;0.30;;;22.00;54.80;;;;;;5044974;28;20029;-58
2022/09/27 13:02:01;;;;;;;0.77;0.30;;;22.10;55.10;;;;;;5049748;28;20228;-56
2022/09/27 13:04:36;;;;;;;0.43;0.30;;;22.10;54.90;;;;;;5047391;28;20094;-57
2022/09/27 13:07:22;;;;;;;1.88;0.73;;;22.00;55.00;;;;;;5049969;28;20037;-58
2022/09/27 13:10:25;;;;;;;1.05;0.30;;;22.10;55.10;;;;;;5051135;28;20056;-58
2022/09/27 13:12:53;;;;;;;0.20;0.15;;;22.10;55.10;;;;;;5042713;28;20047;-58
2022/09/27 13:15:31;;;;;;;0.45;0.38;;;22.10;55.20;;;;;;5048233;28;20033;-53
2022/09/27 13:18:00;;;;;;;0.40;0.13;;;22.10;55.10;;;;;;5044162;28;20030;-58
2022/09/27 13:20:35;;;;;;;2.38;0.50;;;22.10;55.20;;;;;;5045913;28;20033;-58
2022/09/27 13:23:22;;;;;;;2.05;0.40;;;22.00;55.00;;;;;;5051446;28;20029;-59